sensor_id;sensor_type;location;lat;lon;timestamp;temperature;humidity
10296;DHT22;5193;51.032;6.356;2024-02-04T00:01:41;9.60;99.90
10296;DHT22;5193;51.032;6.356;2024-02-04T00:04:07;9.60;99.90
10296;DHT22;5193;51.032;6.356;2024-02-04T00:06:33;9.70;99.90
10296;DHT22;5193;51.032;6.356;2024-02-04T00:08:58;9.70;99.90
10296;DHT22;5193;51.032;6.356;2024-02-04T00:11:24;9.70;99.90
10296;DHT22;5193;51.032;6.356;2024-02-04T00:13:50;9.70;99.90
10296;DHT22;5193;51.032;6.356;2024-02-04T00:16:15;9.70;99.90
10296;DHT22;5193;51.032;6.356;2024-02-04T00:18:41;9.70;99.90
10296;DHT22;5193;51.032;6.356;2024-02-04T00:21:06;9.70;99.90
10296;DHT22;5193;51.032;6.356;2024-02-04T00:23:32;9.70;99.90
10296;DHT22;5193;51.032;6.356;2024-02-04T00:25:58;9.70;99.90
10296;DHT22;5193;51.032;6.356;2024-02-04T00:28:23;9.70;99.90
10296;DHT22;5193;51.032;6.356;2024-02-04T00:30:49;9.70;99.90
10296;DHT22;5193;51.032;6.356;2024-02-04T00:33:15;9.70;99.90
10296;DHT22;5193;51.032;6.356;2024-02-04T00:35:41;9.70;99.90
10296;DHT22;5193;51.032;6.356;2024-02-04T00:38:08;9.70;99.90
10296;DHT22;5193;51.032;6.356;2024-02-04T00:40:34;9.70;99.90
10296;DHT22;5193;51.032;6.356;2024-02-04T00:43:00;9.70;99.90
10296;DHT22;5193;51.032;6.356;2024-02-04T00:45:26;9.70;99.90
10296;DHT22;5193;51.032;6.356;2024-02-04T00:47:52;9.70;99.90
10296;DHT22;5193;51.032;6.356;2024-02-04T00:50:18;9.70;99.90
10296;DHT22;5193;51.032;6.356;2024-02-04T00:52:45;9.70;99.90
10296;DHT22;5193;51.032;6.356;2024-02-04T00:55:10;9.70;99.90
10296;DHT22;5193;51.032;6.356;2024-02-04T00:57:39;9.70;99.90
10296;DHT22;5193;51.032;6.356;2024-02-04T01:00:17;9.70;99.90
10296;DHT22;5193;51.032;6.356;2024-02-04T01:02:46;9.70;99.90
10296;DHT22;5193;51.032;6.356;2024-02-04T01:05:11;9.70;99.90
10296;DHT22;5193;51.032;6.356;2024-02-04T01:07:38;9.70;99.90
10296;DHT22;5193;51.032;6.356;2024-02-04T01:10:04;9.70;99.90
10296;DHT22;5193;51.032;6.356;2024-02-04T01:12:31;9.70;99.90
10296;DHT22;5193;51.032;6.356;2024-02-04T01:14:58;9.70;99.90
10296;DHT22;5193;51.032;6.356;2024-02-04T01:17:23;9.70;99.90
10296;DHT22;5193;51.032;6.356;2024-02-04T01:19:49;9.80;99.90
10296;DHT22;5193;51.032;6.356;2024-02-04T01:22:17;9.70;99.90
10296;DHT22;5193;51.032;6.356;2024-02-04T01:24:43;9.70;99.90
10296;DHT22;5193;51.032;6.356;2024-02-04T01:27:12;9.70;99.90
10296;DHT22;5193;51.032;6.356;2024-02-04T01:29:41;9.70;99.90
10296;DHT22;5193;51.032;6.356;2024-02-04T01:32:06;9.70;99.90
10296;DHT22;5193;51.032;6.356;2024-02-04T01:34:33;9.80;99.90
10296;DHT22;5193;51.032;6.356;2024-02-04T01:36:58;9.80;99.90
10296;DHT22;5193;51.032;6.356;2024-02-04T01:39:24;9.80;99.90
10296;DHT22;5193;51.032;6.356;2024-02-04T01:41:50;9.80;99.90
10296;DHT22;5193;51.032;6.356;2024-02-04T01:44:18;9.80;99.90
10296;DHT22;5193;51.032;6.356;2024-02-04T01:46:48;9.80;99.90
10296;DHT22;5193;51.032;6.356;2024-02-04T01:49:13;9.80;99.90
10296;DHT22;5193;51.032;6.356;2024-02-04T01:51:39;9.80;99.90
10296;DHT22;5193;51.032;6.356;2024-02-04T01:54:06;9.80;99.90
10296;DHT22;5193;51.032;6.356;2024-02-04T01:56:33;9.80;99.90
10296;DHT22;5193;51.032;6.356;2024-02-04T01:58:59;9.70;99.90
10296;DHT22;5193;51.032;6.356;2024-02-04T02:01:26;9.80;99.90
10296;DHT22;5193;51.032;6.356;2024-02-04T02:03:52;9.80;99.90
10296;DHT22;5193;51.032;6.356;2024-02-04T02:06:17;9.80;99.90
10296;DHT22;5193;51.032;6.356;2024-02-04T02:08:44;9.80;99.90
10296;DHT22;5193;51.032;6.356;2024-02-04T02:12:29;9.80;99.90
10296;DHT22;5193;51.032;6.356;2024-02-04T02:14:26;9.80;99.90
10296;DHT22;5193;51.032;6.356;2024-02-04T02:16:57;9.80;99.90
10296;DHT22;5193;51.032;6.356;2024-02-04T02:19:40;9.80;99.90
10296;DHT22;5193;51.032;6.356;2024-02-04T02:23:21;9.80;99.90
10296;DHT22;5193;51.032;6.356;2024-02-04T02:25:20;9.80;99.90
10296;DHT22;5193;51.032;6.356;2024-02-04T02:27:49;9.80;99.90
10296;DHT22;5193;51.032;6.356;2024-02-04T02:30:16;9.80;99.90
10296;DHT22;5193;51.032;6.356;2024-02-04T02:32:45;9.80;99.90
10296;DHT22;5193;51.032;6.356;2024-02-04T02:35:15;9.80;99.90
10296;DHT22;5193;51.032;6.356;2024-02-04T02:37:49;9.80;99.90
10296;DHT22;5193;51.032;6.356;2024-02-04T02:40:46;9.80;99.90
10296;DHT22;5193;51.032;6.356;2024-02-04T02:43:13;9.80;99.90
10296;DHT22;5193;51.032;6.356;2024-02-04T02:45:42;9.80;99.90
10296;DHT22;5193;51.032;6.356;2024-02-04T02:48:08;9.80;99.90
10296;DHT22;5193;51.032;6.356;2024-02-04T02:50:40;9.90;99.90
10296;DHT22;5193;51.032;6.356;2024-02-04T02:53:06;9.90;99.90
10296;DHT22;5193;51.032;6.356;2024-02-04T02:55:32;9.90;99.90
10296;DHT22;5193;51.032;6.356;2024-02-04T02:57:57;9.90;99.90
10296;DHT22;5193;51.032;6.356;2024-02-04T03:00:23;9.90;99.90
10296;DHT22;5193;51.032;6.356;2024-02-04T03:02:49;9.90;99.90
10296;DHT22;5193;51.032;6.356;2024-02-04T03:05:18;9.90;99.90
10296;DHT22;5193;51.032;6.356;2024-02-04T03:07:43;9.90;99.90
10296;DHT22;5193;51.032;6.356;2024-02-04T03:10:09;9.90;99.90
10296;DHT22;5193;51.032;6.356;2024-02-04T03:12:35;9.90;99.90
10296;DHT22;5193;51.032;6.356;2024-02-04T03:15:01;9.90;99.90
10296;DHT22;5193;51.032;6.356;2024-02-04T03:17:27;9.90;99.90
10296;DHT22;5193;51.032;6.356;2024-02-04T03:19:52;10.00;99.90
10296;DHT22;5193;51.032;6.356;2024-02-04T03:22:20;9.90;99.90
10296;DHT22;5193;51.032;6.356;2024-02-04T03:24:47;9.90;99.90
10296;DHT22;5193;51.032;6.356;2024-02-04T03:27:12;9.90;99.90
10296;DHT22;5193;51.032;6.356;2024-02-04T03:29:38;10.00;99.90
10296;DHT22;5193;51.032;6.356;2024-02-04T03:32:04;9.90;99.90
10296;DHT22;5193;51.032;6.356;2024-02-04T03:34:32;9.90;99.90
10296;DHT22;5193;51.032;6.356;2024-02-04T03:36:58;10.00;99.90
10296;DHT22;5193;51.032;6.356;2024-02-04T03:39:24;10.00;99.90
10296;DHT22;5193;51.032;6.356;2024-02-04T03:41:49;10.00;99.90
10296;DHT22;5193;51.032;6.356;2024-02-04T03:44:15;10.00;99.90
10296;DHT22;5193;51.032;6.356;2024-02-04T03:46:41;10.00;99.90
10296;DHT22;5193;51.032;6.356;2024-02-04T03:49:10;10.00;99.90
10296;DHT22;5193;51.032;6.356;2024-02-04T03:51:36;10.00;99.90
10296;DHT22;5193;51.032;6.356;2024-02-04T03:54:02;10.00;99.90
10296;DHT22;5193;51.032;6.356;2024-02-04T03:56:27;10.00;99.90
10296;DHT22;5193;51.032;6.356;2024-02-04T03:58:53;10.00;99.90
10296;DHT22;5193;51.032;6.356;2024-02-04T04:01:19;10.00;99.90
10296;DHT22;5193;51.032;6.356;2024-02-04T04:03:44;10.00;99.90
10296;DHT22;5193;51.032;6.356;2024-02-04T04:06:10;10.00;99.90
10296;DHT22;5193;51.032;6.356;2024-02-04T04:08:36;10.00;99.90
10296;DHT22;5193;51.032;6.356;2024-02-04T04:11:02;10.00;99.90
10296;DHT22;5193;51.032;6.356;2024-02-04T04:13:29;10.00;99.90
10296;DHT22;5193;51.032;6.356;2024-02-04T04:16:00;10.00;99.90
10296;DHT22;5193;51.032;6.356;2024-02-04T04:18:26;10.00;99.90
10296;DHT22;5193;51.032;6.356;2024-02-04T04:20:52;10.10;99.90
10296;DHT22;5193;51.032;6.356;2024-02-04T04:23:17;10.00;99.90
10296;DHT22;5193;51.032;6.356;2024-02-04T04:25:43;10.00;99.90
10296;DHT22;5193;51.032;6.356;2024-02-04T04:28:08;10.00;99.90
10296;DHT22;5193;51.032;6.356;2024-02-04T04:30:40;10.00;99.90
10296;DHT22;5193;51.032;6.356;2024-02-04T04:33:05;10.00;99.90
10296;DHT22;5193;51.032;6.356;2024-02-04T04:35:31;10.10;99.90
10296;DHT22;5193;51.032;6.356;2024-02-04T04:37:57;10.10;99.90
10296;DHT22;5193;51.032;6.356;2024-02-04T04:40:23;10.10;99.90
10296;DHT22;5193;51.032;6.356;2024-02-04T04:42:49;10.00;99.90
10296;DHT22;5193;51.032;6.356;2024-02-04T04:45:21;10.10;99.90
10296;DHT22;5193;51.032;6.356;2024-02-04T04:47:47;10.10;99.90
10296;DHT22;5193;51.032;6.356;2024-02-04T04:50:12;10.10;99.90
10296;DHT22;5193;51.032;6.356;2024-02-04T04:53:03;10.10;99.90
10296;DHT22;5193;51.032;6.356;2024-02-04T04:55:28;10.10;99.90
10296;DHT22;5193;51.032;6.356;2024-02-04T04:57:57;10.00;99.90
10296;DHT22;5193;51.032;6.356;2024-02-04T05:00:22;10.00;99.90
10296;DHT22;5193;51.032;6.356;2024-02-04T05:02:48;10.10;99.90
10296;DHT22;5193;51.032;6.356;2024-02-04T05:05:14;10.10;99.90
10296;DHT22;5193;51.032;6.356;2024-02-04T05:07:40;10.10;99.90
10296;DHT22;5193;51.032;6.356;2024-02-04T05:10:06;10.00;99.90
10296;DHT22;5193;51.032;6.356;2024-02-04T05:12:33;10.00;99.90
10296;DHT22;5193;51.032;6.356;2024-02-04T05:14:59;10.00;99.90
10296;DHT22;5193;51.032;6.356;2024-02-04T05:17:24;10.00;99.90
10296;DHT22;5193;51.032;6.356;2024-02-04T05:19:50;10.00;99.90
10296;DHT22;5193;51.032;6.356;2024-02-04T05:22:15;10.00;99.90
10296;DHT22;5193;51.032;6.356;2024-02-04T05:24:42;10.00;99.90
10296;DHT22;5193;51.032;6.356;2024-02-04T05:27:11;10.00;99.90
10296;DHT22;5193;51.032;6.356;2024-02-04T05:29:37;10.00;99.90
10296;DHT22;5193;51.032;6.356;2024-02-04T05:32:02;10.00;99.90
10296;DHT22;5193;51.032;6.356;2024-02-04T05:34:28;10.00;99.90
10296;DHT22;5193;51.032;6.356;2024-02-04T05:36:55;10.00;99.90
10296;DHT22;5193;51.032;6.356;2024-02-04T05:39:24;10.00;99.90
10296;DHT22;5193;51.032;6.356;2024-02-04T05:41:51;10.00;99.90
10296;DHT22;5193;51.032;6.356;2024-02-04T05:44:17;10.00;99.90
10296;DHT22;5193;51.032;6.356;2024-02-04T05:46:43;10.00;99.90
10296;DHT22;5193;51.032;6.356;2024-02-04T05:49:08;10.00;99.90
10296;DHT22;5193;51.032;6.356;2024-02-04T05:51:38;10.00;99.90
10296;DHT22;5193;51.032;6.356;2024-02-04T05:54:08;10.00;99.90
10296;DHT22;5193;51.032;6.356;2024-02-04T05:56:34;10.00;99.90
10296;DHT22;5193;51.032;6.356;2024-02-04T05:58:59;10.00;99.90
10296;DHT22;5193;51.032;6.356;2024-02-04T06:01:25;10.00;99.90
10296;DHT22;5193;51.032;6.356;2024-02-04T06:03:50;10.00;99.90
10296;DHT22;5193;51.032;6.356;2024-02-04T06:06:17;10.00;99.90
10296;DHT22;5193;51.032;6.356;2024-02-04T06:08:46;10.00;99.90
10296;DHT22;5193;51.032;6.356;2024-02-04T06:11:12;10.00;99.90
10296;DHT22;5193;51.032;6.356;2024-02-04T06:13:39;10.00;99.90
10296;DHT22;5193;51.032;6.356;2024-02-04T06:16:05;10.00;99.90
10296;DHT22;5193;51.032;6.356;2024-02-04T06:18:31;10.00;99.90
10296;DHT22;5193;51.032;6.356;2024-02-04T06:21:04;10.00;99.90
10296;DHT22;5193;51.032;6.356;2024-02-04T06:23:33;10.00;99.90
10296;DHT22;5193;51.032;6.356;2024-02-04T06:26:02;10.10;99.90
10296;DHT22;5193;51.032;6.356;2024-02-04T06:28:29;10.00;99.90
10296;DHT22;5193;51.032;6.356;2024-02-04T06:30:55;10.00;99.90
10296;DHT22;5193;51.032;6.356;2024-02-04T06:33:21;10.00;99.90
10296;DHT22;5193;51.032;6.356;2024-02-04T06:35:48;10.00;99.90
10296;DHT22;5193;51.032;6.356;2024-02-04T06:38:15;10.00;99.90
10296;DHT22;5193;51.032;6.356;2024-02-04T06:40:41;10.00;99.90
10296;DHT22;5193;51.032;6.356;2024-02-04T06:43:06;10.00;99.90
10296;DHT22;5193;51.032;6.356;2024-02-04T06:45:35;10.00;99.90
10296;DHT22;5193;51.032;6.356;2024-02-04T06:48:05;10.00;99.90
10296;DHT22;5193;51.032;6.356;2024-02-04T06:50:40;10.00;99.90
10296;DHT22;5193;51.032;6.356;2024-02-04T06:53:05;10.00;99.90
10296;DHT22;5193;51.032;6.356;2024-02-04T06:55:31;10.00;99.90
10296;DHT22;5193;51.032;6.356;2024-02-04T06:57:56;10.00;99.90
10296;DHT22;5193;51.032;6.356;2024-02-04T07:00:22;10.00;99.90
10296;DHT22;5193;51.032;6.356;2024-02-04T07:02:53;9.90;99.90
10296;DHT22;5193;51.032;6.356;2024-02-04T07:05:20;10.00;99.90
10296;DHT22;5193;51.032;6.356;2024-02-04T07:07:47;9.90;99.90
10296;DHT22;5193;51.032;6.356;2024-02-04T07:10:13;10.00;99.90
10296;DHT22;5193;51.032;6.356;2024-02-04T07:12:42;10.00;99.90
10296;DHT22;5193;51.032;6.356;2024-02-04T07:15:20;10.00;99.90
10296;DHT22;5193;51.032;6.356;2024-02-04T07:17:46;9.90;99.90
10296;DHT22;5193;51.032;6.356;2024-02-04T07:20:12;9.90;99.90
10296;DHT22;5193;51.032;6.356;2024-02-04T07:22:38;9.90;99.90
10296;DHT22;5193;51.032;6.356;2024-02-04T07:25:04;9.90;99.90
10296;DHT22;5193;51.032;6.356;2024-02-04T07:27:30;10.00;99.90
10296;DHT22;5193;51.032;6.356;2024-02-04T07:29:56;9.90;99.90
10296;DHT22;5193;51.032;6.356;2024-02-04T07:32:23;10.00;99.90
10296;DHT22;5193;51.032;6.356;2024-02-04T07:38:05;10.00;99.90
10296;DHT22;5193;51.032;6.356;2024-02-04T07:40:30;10.00;99.90
10296;DHT22;5193;51.032;6.356;2024-02-04T07:42:56;10.00;99.90
10296;DHT22;5193;51.032;6.356;2024-02-04T07:45:22;10.00;99.90
10296;DHT22;5193;51.032;6.356;2024-02-04T07:47:47;10.00;99.90
10296;DHT22;5193;51.032;6.356;2024-02-04T07:50:13;10.00;99.90
10296;DHT22;5193;51.032;6.356;2024-02-04T07:52:42;10.00;99.90
10296;DHT22;5193;51.032;6.356;2024-02-04T07:55:08;10.00;99.90
10296;DHT22;5193;51.032;6.356;2024-02-04T07:57:33;10.00;99.90
10296;DHT22;5193;51.032;6.356;2024-02-04T07:59:59;10.00;99.90
10296;DHT22;5193;51.032;6.356;2024-02-04T08:02:27;10.00;99.90
10296;DHT22;5193;51.032;6.356;2024-02-04T08:04:53;10.00;99.90
10296;DHT22;5193;51.032;6.356;2024-02-04T08:07:22;10.00;99.90
10296;DHT22;5193;51.032;6.356;2024-02-04T08:09:48;10.00;99.90
10296;DHT22;5193;51.032;6.356;2024-02-04T08:12:16;10.10;99.90
10296;DHT22;5193;51.032;6.356;2024-02-04T08:14:41;10.00;99.90
10296;DHT22;5193;51.032;6.356;2024-02-04T08:17:07;10.00;99.90
10296;DHT22;5193;51.032;6.356;2024-02-04T08:19:33;10.10;99.90
10296;DHT22;5193;51.032;6.356;2024-02-04T08:21:58;10.10;99.90
10296;DHT22;5193;51.032;6.356;2024-02-04T08:24:27;10.10;99.90
10296;DHT22;5193;51.032;6.356;2024-02-04T08:26:55;10.10;99.90
10296;DHT22;5193;51.032;6.356;2024-02-04T08:29:20;10.10;99.90
10296;DHT22;5193;51.032;6.356;2024-02-04T08:31:46;10.10;99.90
10296;DHT22;5193;51.032;6.356;2024-02-04T08:34:12;10.20;99.90
10296;DHT22;5193;51.032;6.356;2024-02-04T08:36:37;10.20;99.90
10296;DHT22;5193;51.032;6.356;2024-02-04T08:39:03;10.20;99.90
10296;DHT22;5193;51.032;6.356;2024-02-04T08:41:29;10.20;99.90
10296;DHT22;5193;51.032;6.356;2024-02-04T08:43:55;10.20;99.90
10296;DHT22;5193;51.032;6.356;2024-02-04T08:46:20;10.20;99.90
10296;DHT22;5193;51.032;6.356;2024-02-04T08:48:49;10.20;99.90
10296;DHT22;5193;51.032;6.356;2024-02-04T08:51:16;10.20;99.90
10296;DHT22;5193;51.032;6.356;2024-02-04T08:53:43;10.30;99.90
10296;DHT22;5193;51.032;6.356;2024-02-04T08:56:09;10.30;99.90
10296;DHT22;5193;51.032;6.356;2024-02-04T08:58:38;10.30;99.90
10296;DHT22;5193;51.032;6.356;2024-02-04T09:01:04;10.30;99.90
10296;DHT22;5193;51.032;6.356;2024-02-04T09:03:34;10.40;99.90
10296;DHT22;5193;51.032;6.356;2024-02-04T09:06:00;10.30;99.90
10296;DHT22;5193;51.032;6.356;2024-02-04T09:08:26;10.40;99.90
10296;DHT22;5193;51.032;6.356;2024-02-04T09:10:51;10.30;99.90
10296;DHT22;5193;51.032;6.356;2024-02-04T09:13:17;10.30;99.90
10296;DHT22;5193;51.032;6.356;2024-02-04T09:15:43;10.40;99.90
10296;DHT22;5193;51.032;6.356;2024-02-04T09:18:12;10.30;99.90
10296;DHT22;5193;51.032;6.356;2024-02-04T09:20:37;10.30;99.90
10296;DHT22;5193;51.032;6.356;2024-02-04T09:23:03;10.40;99.90
10296;DHT22;5193;51.032;6.356;2024-02-04T09:25:33;10.40;99.90
10296;DHT22;5193;51.032;6.356;2024-02-04T09:27:58;10.40;99.90
10296;DHT22;5193;51.032;6.356;2024-02-04T09:30:24;10.30;99.90
10296;DHT22;5193;51.032;6.356;2024-02-04T09:32:53;10.40;99.90
10296;DHT22;5193;51.032;6.356;2024-02-04T09:35:18;10.40;99.90
10296;DHT22;5193;51.032;6.356;2024-02-04T09:37:44;10.40;99.90
10296;DHT22;5193;51.032;6.356;2024-02-04T09:40:10;10.40;99.90
10296;DHT22;5193;51.032;6.356;2024-02-04T09:42:36;10.40;99.90
10296;DHT22;5193;51.032;6.356;2024-02-04T09:45:02;10.40;99.90
10296;DHT22;5193;51.032;6.356;2024-02-04T09:47:28;10.40;99.90
10296;DHT22;5193;51.032;6.356;2024-02-04T09:49:54;10.40;99.90
10296;DHT22;5193;51.032;6.356;2024-02-04T09:52:29;10.50;99.90
10296;DHT22;5193;51.032;6.356;2024-02-04T09:55:03;10.50;99.90
10296;DHT22;5193;51.032;6.356;2024-02-04T09:57:34;10.50;99.90
10296;DHT22;5193;51.032;6.356;2024-02-04T10:00:10;10.50;99.90
10296;DHT22;5193;51.032;6.356;2024-02-04T10:02:36;10.50;99.90
10296;DHT22;5193;51.032;6.356;2024-02-04T10:05:02;10.50;99.90
10296;DHT22;5193;51.032;6.356;2024-02-04T10:07:28;10.60;99.90
10296;DHT22;5193;51.032;6.356;2024-02-04T10:09:55;10.60;99.90
10296;DHT22;5193;51.032;6.356;2024-02-04T10:12:25;10.60;99.90
10296;DHT22;5193;51.032;6.356;2024-02-04T10:14:51;10.60;99.90
10296;DHT22;5193;51.032;6.356;2024-02-04T10:17:16;10.60;99.90
10296;DHT22;5193;51.032;6.356;2024-02-04T10:19:42;10.60;99.90
10296;DHT22;5193;51.032;6.356;2024-02-04T10:22:08;10.60;99.90
10296;DHT22;5193;51.032;6.356;2024-02-04T10:24:34;10.60;99.90
10296;DHT22;5193;51.032;6.356;2024-02-04T10:27:04;10.60;99.90
10296;DHT22;5193;51.032;6.356;2024-02-04T10:29:29;10.60;99.90
10296;DHT22;5193;51.032;6.356;2024-02-04T10:31:56;10.70;99.90
10296;DHT22;5193;51.032;6.356;2024-02-04T10:34:23;10.70;99.90
10296;DHT22;5193;51.032;6.356;2024-02-04T10:36:48;10.70;99.90
10296;DHT22;5193;51.032;6.356;2024-02-04T10:39:14;10.70;99.90
10296;DHT22;5193;51.032;6.356;2024-02-04T10:41:53;10.70;99.90
10296;DHT22;5193;51.032;6.356;2024-02-04T10:44:22;10.70;99.90
10296;DHT22;5193;51.032;6.356;2024-02-04T10:46:49;10.70;99.90
10296;DHT22;5193;51.032;6.356;2024-02-04T10:49:15;10.80;99.90
10296;DHT22;5193;51.032;6.356;2024-02-04T10:51:42;10.80;99.90
10296;DHT22;5193;51.032;6.356;2024-02-04T10:54:16;10.80;99.90
10296;DHT22;5193;51.032;6.356;2024-02-04T10:56:46;10.70;99.90
10296;DHT22;5193;51.032;6.356;2024-02-04T10:59:18;10.70;99.90
10296;DHT22;5193;51.032;6.356;2024-02-04T11:01:45;10.70;99.90
10296;DHT22;5193;51.032;6.356;2024-02-04T11:04:14;10.70;99.90
10296;DHT22;5193;51.032;6.356;2024-02-04T11:06:44;10.70;99.90
10296;DHT22;5193;51.032;6.356;2024-02-04T11:09:12;10.80;99.90
10296;DHT22;5193;51.032;6.356;2024-02-04T11:11:41;10.70;99.90
10296;DHT22;5193;51.032;6.356;2024-02-04T11:14:13;10.70;99.90
10296;DHT22;5193;51.032;6.356;2024-02-04T11:22:41;10.80;99.90
10296;DHT22;5193;51.032;6.356;2024-02-04T11:25:51;10.80;99.90
10296;DHT22;5193;51.032;6.356;2024-02-04T11:28:19;10.80;99.90
10296;DHT22;5193;51.032;6.356;2024-02-04T11:30:47;10.80;99.90
10296;DHT22;5193;51.032;6.356;2024-02-04T11:33:13;10.80;99.90
10296;DHT22;5193;51.032;6.356;2024-02-04T11:35:45;10.80;99.90
10296;DHT22;5193;51.032;6.356;2024-02-04T11:38:11;10.80;99.90
10296;DHT22;5193;51.032;6.356;2024-02-04T11:40:39;10.80;99.90
10296;DHT22;5193;51.032;6.356;2024-02-04T11:43:15;10.70;99.90
10296;DHT22;5193;51.032;6.356;2024-02-04T11:45:43;10.70;99.90
10296;DHT22;5193;51.032;6.356;2024-02-04T11:51:35;10.70;99.90
10296;DHT22;5193;51.032;6.356;2024-02-04T11:54:01;10.70;99.90
10296;DHT22;5193;51.032;6.356;2024-02-04T11:56:33;10.70;99.90
10296;DHT22;5193;51.032;6.356;2024-02-04T11:58:59;10.70;99.90
10296;DHT22;5193;51.032;6.356;2024-02-04T12:01:25;10.70;99.90
10296;DHT22;5193;51.032;6.356;2024-02-04T12:03:51;10.70;99.90
10296;DHT22;5193;51.032;6.356;2024-02-04T12:06:20;10.70;99.90
10296;DHT22;5193;51.032;6.356;2024-02-04T12:08:46;10.70;99.90
10296;DHT22;5193;51.032;6.356;2024-02-04T12:11:12;10.70;99.90
10296;DHT22;5193;51.032;6.356;2024-02-04T12:13:38;10.70;99.90
10296;DHT22;5193;51.032;6.356;2024-02-04T12:16:06;10.70;99.90
10296;DHT22;5193;51.032;6.356;2024-02-04T12:18:34;10.70;99.90
10296;DHT22;5193;51.032;6.356;2024-02-04T12:21:03;10.70;99.90
10296;DHT22;5193;51.032;6.356;2024-02-04T12:23:32;10.60;99.90
10296;DHT22;5193;51.032;6.356;2024-02-04T12:26:00;10.70;99.90
10296;DHT22;5193;51.032;6.356;2024-02-04T12:28:26;10.60;99.90
10296;DHT22;5193;51.032;6.356;2024-02-04T12:30:53;10.60;99.90
10296;DHT22;5193;51.032;6.356;2024-02-04T12:33:24;10.70;99.90
10296;DHT22;5193;51.032;6.356;2024-02-04T12:35:54;10.70;99.90
10296;DHT22;5193;51.032;6.356;2024-02-04T12:38:24;10.70;99.90
10296;DHT22;5193;51.032;6.356;2024-02-04T12:40:51;10.70;99.90
10296;DHT22;5193;51.032;6.356;2024-02-04T12:43:17;10.70;99.90
10296;DHT22;5193;51.032;6.356;2024-02-04T12:45:46;10.60;99.90
10296;DHT22;5193;51.032;6.356;2024-02-04T12:48:15;10.60;99.90
10296;DHT22;5193;51.032;6.356;2024-02-04T12:50:41;10.70;99.90
10296;DHT22;5193;51.032;6.356;2024-02-04T12:53:10;10.70;99.90
10296;DHT22;5193;51.032;6.356;2024-02-04T12:55:37;10.60;99.90
10296;DHT22;5193;51.032;6.356;2024-02-04T12:58:08;10.60;99.90
10296;DHT22;5193;51.032;6.356;2024-02-04T13:00:36;10.70;99.90
10296;DHT22;5193;51.032;6.356;2024-02-04T13:03:03;10.60;99.90
10296;DHT22;5193;51.032;6.356;2024-02-04T13:05:36;10.70;99.90
10296;DHT22;5193;51.032;6.356;2024-02-04T13:08:03;10.60;99.90
10296;DHT22;5193;51.032;6.356;2024-02-04T13:10:35;10.60;99.90
10296;DHT22;5193;51.032;6.356;2024-02-04T13:13:06;10.60;99.90
10296;DHT22;5193;51.032;6.356;2024-02-04T13:15:40;10.60;99.90
10296;DHT22;5193;51.032;6.356;2024-02-04T13:18:09;10.60;99.90
10296;DHT22;5193;51.032;6.356;2024-02-04T13:20:37;10.60;99.90
10296;DHT22;5193;51.032;6.356;2024-02-04T13:23:03;10.60;99.90
10296;DHT22;5193;51.032;6.356;2024-02-04T13:25:33;10.60;99.90
10296;DHT22;5193;51.032;6.356;2024-02-04T13:27:58;10.60;99.90
10296;DHT22;5193;51.032;6.356;2024-02-04T13:30:24;10.60;99.90
10296;DHT22;5193;51.032;6.356;2024-02-04T13:32:52;10.60;99.90
10296;DHT22;5193;51.032;6.356;2024-02-04T13:35:17;10.70;99.90
10296;DHT22;5193;51.032;6.356;2024-02-04T13:37:47;10.60;99.90
10296;DHT22;5193;51.032;6.356;2024-02-04T13:40:18;10.70;99.90
10296;DHT22;5193;51.032;6.356;2024-02-04T13:42:47;10.70;99.90
10296;DHT22;5193;51.032;6.356;2024-02-04T13:45:13;10.60;99.90
10296;DHT22;5193;51.032;6.356;2024-02-04T13:47:39;10.60;99.90
10296;DHT22;5193;51.032;6.356;2024-02-04T13:53:27;10.70;99.90
10296;DHT22;5193;51.032;6.356;2024-02-04T13:55:53;10.70;99.90
10296;DHT22;5193;51.032;6.356;2024-02-04T13:58:19;10.70;99.90
10296;DHT22;5193;51.032;6.356;2024-02-04T14:00:47;10.70;99.90
10296;DHT22;5193;51.032;6.356;2024-02-04T14:03:13;10.70;99.90
10296;DHT22;5193;51.032;6.356;2024-02-04T14:05:53;10.70;99.90
10296;DHT22;5193;51.032;6.356;2024-02-04T14:08:21;10.70;99.90
10296;DHT22;5193;51.032;6.356;2024-02-04T14:10:46;10.70;99.90
10296;DHT22;5193;51.032;6.356;2024-02-04T14:13:21;10.70;99.90
10296;DHT22;5193;51.032;6.356;2024-02-04T14:15:46;10.70;99.90
10296;DHT22;5193;51.032;6.356;2024-02-04T14:18:12;10.80;99.90
10296;DHT22;5193;51.032;6.356;2024-02-04T14:20:38;10.80;99.90
10296;DHT22;5193;51.032;6.356;2024-02-04T14:23:04;10.80;99.90
10296;DHT22;5193;51.032;6.356;2024-02-04T14:25:30;10.80;99.90
10296;DHT22;5193;51.032;6.356;2024-02-04T14:27:55;10.80;99.90
10296;DHT22;5193;51.032;6.356;2024-02-04T14:30:21;10.80;99.90
10296;DHT22;5193;51.032;6.356;2024-02-04T14:32:48;10.80;99.90
10296;DHT22;5193;51.032;6.356;2024-02-04T14:35:13;10.80;99.90
10296;DHT22;5193;51.032;6.356;2024-02-04T14:37:41;10.80;99.90
10296;DHT22;5193;51.032;6.356;2024-02-04T14:40:08;10.80;99.90
10296;DHT22;5193;51.032;6.356;2024-02-04T14:42:34;10.80;99.90
10296;DHT22;5193;51.032;6.356;2024-02-04T14:45:00;10.80;99.90
10296;DHT22;5193;51.032;6.356;2024-02-04T14:47:27;10.80;99.90
10296;DHT22;5193;51.032;6.356;2024-02-04T14:49:53;10.80;99.90
10296;DHT22;5193;51.032;6.356;2024-02-04T14:52:19;10.70;99.90
10296;DHT22;5193;51.032;6.356;2024-02-04T14:54:45;10.80;99.90
10296;DHT22;5193;51.032;6.356;2024-02-04T14:57:10;10.80;99.90
10296;DHT22;5193;51.032;6.356;2024-02-04T14:59:36;10.80;99.90
10296;DHT22;5193;51.032;6.356;2024-02-04T15:02:03;10.80;99.90
10296;DHT22;5193;51.032;6.356;2024-02-04T15:04:31;10.80;99.90
10296;DHT22;5193;51.032;6.356;2024-02-04T15:07:00;10.80;99.90
10296;DHT22;5193;51.032;6.356;2024-02-04T15:09:33;10.80;99.90
10296;DHT22;5193;51.032;6.356;2024-02-04T15:12:29;10.70;99.90
10296;DHT22;5193;51.032;6.356;2024-02-04T15:14:56;10.80;99.90
10296;DHT22;5193;51.032;6.356;2024-02-04T15:17:23;10.80;99.90
10296;DHT22;5193;51.032;6.356;2024-02-04T15:19:49;10.80;99.90
10296;DHT22;5193;51.032;6.356;2024-02-04T15:22:14;10.80;99.90
10296;DHT22;5193;51.032;6.356;2024-02-04T15:24:43;10.70;99.90
10296;DHT22;5193;51.032;6.356;2024-02-04T15:27:10;10.80;99.90
10296;DHT22;5193;51.032;6.356;2024-02-04T15:29:37;10.80;99.90
10296;DHT22;5193;51.032;6.356;2024-02-04T15:32:03;10.80;99.90
10296;DHT22;5193;51.032;6.356;2024-02-04T15:34:30;10.80;99.90
10296;DHT22;5193;51.032;6.356;2024-02-04T15:37:02;10.80;99.90
10296;DHT22;5193;51.032;6.356;2024-02-04T15:39:30;10.80;99.90
10296;DHT22;5193;51.032;6.356;2024-02-04T15:41:58;10.70;99.90
10296;DHT22;5193;51.032;6.356;2024-02-04T15:44:27;10.80;99.90
10296;DHT22;5193;51.032;6.356;2024-02-04T15:46:53;10.70;99.90
10296;DHT22;5193;51.032;6.356;2024-02-04T15:49:23;10.70;99.90
10296;DHT22;5193;51.032;6.356;2024-02-04T15:51:49;10.70;99.90
10296;DHT22;5193;51.032;6.356;2024-02-04T15:54:16;10.60;99.90
10296;DHT22;5193;51.032;6.356;2024-02-04T15:56:43;10.70;99.90
10296;DHT22;5193;51.032;6.356;2024-02-04T15:59:13;10.60;99.90
10296;DHT22;5193;51.032;6.356;2024-02-04T16:01:39;10.60;99.90
10296;DHT22;5193;51.032;6.356;2024-02-04T16:04:07;10.60;99.90
10296;DHT22;5193;51.032;6.356;2024-02-04T16:06:35;10.60;99.90
10296;DHT22;5193;51.032;6.356;2024-02-04T16:09:02;10.60;99.90